Time;durP1;ratioP1;P1;durP2;ratioP2;P2;SDS_P1;SDS_P2;PMS_P1;PMS_P2;Temp;Humidity;BMP_temperature;BMP_pressure;BME280_temperature;BME280_humidity;BME280_pressure;Samples;Min_cycle;Max_cycle;Signal;HPM_P1;HPM_P2
2022/07/19 00:01:58;;;;;;;2.13;1.67;;;20.40;99.90;;;;;;5072142;28;20920;-73
2022/07/19 00:04:24;;;;;;;2.50;2.27;;;20.40;99.90;;;;;;5073523;28;20407;-72
2022/07/19 00:06:49;;;;;;;1.87;1.67;;;20.30;99.90;;;;;;5073704;28;20159;-73
2022/07/19 00:09:15;;;;;;;2.93;2.10;;;20.30;99.90;;;;;;5072321;28;20190;-73
2022/07/19 00:11:41;;;;;;;2.30;1.50;;;20.30;99.90;;;;;;5073976;28;20655;-74
2022/07/19 00:14:06;;;;;;;2.43;1.50;;;20.20;99.90;;;;;;5074987;28;20408;-74
2022/07/19 00:16:32;;;;;;;2.13;1.90;;;20.10;99.90;;;;;;5073504;28;20175;-74
2022/07/19 00:18:58;;;;;;;2.03;1.83;;;20.10;99.90;;;;;;5074609;28;20220;-74
2022/07/19 00:21:23;;;;;;;4.70;1.40;;;20.00;99.90;;;;;;5074722;28;20580;-74
2022/07/19 00:23:49;;;;;;;3.07;2.10;;;20.00;99.90;;;;;;5074856;28;20166;-74
2022/07/19 00:26:14;;;;;;;2.30;1.87;;;19.90;99.90;;;;;;5056393;28;20170;-73
2022/07/19 00:28:40;;;;;;;1.30;1.20;;;19.90;99.90;;;;;;5075161;28;20162;-74
2022/07/19 00:31:05;;;;;;;3.00;2.07;;;19.80;99.90;;;;;;5073265;28;20673;-74
2022/07/19 00:33:31;;;;;;;1.77;1.50;;;19.80;99.90;;;;;;5073658;28;20167;-74
2022/07/19 00:35:56;;;;;;;5.43;2.17;;;19.80;99.90;;;;;;5073218;28;20174;-73
2022/07/19 00:38:22;;;;;;;1.90;1.43;;;19.70;99.90;;;;;;5073009;28;20674;-73
2022/07/19 00:40:48;;;;;;;1.83;1.53;;;19.70;99.90;;;;;;5073032;28;20518;-73
2022/07/19 00:43:13;;;;;;;3.53;1.73;;;19.60;99.90;;;;;;5071932;28;20173;-73
2022/07/19 00:45:39;;;;;;;3.80;2.27;;;19.60;99.90;;;;;;5072690;28;20201;-73
2022/07/19 00:48:05;;;;;;;2.20;1.40;;;19.60;99.90;;;;;;5072932;28;20476;-73
2022/07/19 00:50:31;;;;;;;3.43;2.03;;;19.60;99.90;;;;;;5072842;28;20671;-73
2022/07/19 00:53:00;;;;;;;12.03;2.20;;;19.50;99.90;;;;;;5073309;28;20420;-74
2022/07/19 00:55:28;;;;;;;3.23;1.90;;;19.50;99.90;;;;;;5073418;28;20400;-73
2022/07/19 00:57:56;;;;;;;1.70;1.40;;;19.50;99.90;;;;;;5072672;28;20432;-73
2022/07/19 01:00:22;;;;;;;1.97;1.87;;;19.50;99.90;;;;;;5071360;28;20511;-73
2022/07/19 01:02:48;;;;;;;3.00;1.67;;;19.50;99.90;;;;;;5072673;28;20447;-73
2022/07/19 01:05:13;;;;;;;1.60;1.50;;;19.50;99.90;;;;;;5072370;28;20440;-73
2022/07/19 01:07:41;;;;;;;1.90;1.70;;;19.50;99.90;;;;;;5073672;28;20424;-74
2022/07/19 01:10:08;;;;;;;5.63;2.03;;;19.40;99.90;;;;;;5073466;28;20194;-73
2022/07/19 01:12:34;;;;;;;2.10;1.70;;;19.50;99.90;;;;;;5070575;28;20400;-73
2022/07/19 01:15:11;;;;;;;2.03;1.80;;;19.50;99.90;;;;;;5072200;28;20897;-73
2022/07/19 01:17:36;;;;;;;2.77;1.70;;;19.40;99.90;;;;;;5073549;28;20231;-74
2022/07/19 01:20:02;;;;;;;2.23;2.03;;;19.40;99.90;;;;;;5073833;28;20456;-74
2022/07/19 01:22:28;;;;;;;1.93;1.70;;;19.40;99.90;;;;;;5073055;28;20170;-73
2022/07/19 01:24:53;;;;;;;2.43;2.17;;;19.40;99.90;;;;;;5072176;28;20764;-73
2022/07/19 01:27:19;;;;;;;2.33;1.80;;;19.30;99.90;;;;;;5072316;28;20194;-73
2022/07/19 01:29:44;;;;;;;2.63;2.43;;;19.40;99.90;;;;;;5072150;28;20190;-72
2022/07/19 01:32:10;;;;;;;2.20;1.60;;;19.30;99.90;;;;;;5072584;28;20170;-73
2022/07/19 01:34:35;;;;;;;2.73;2.07;;;19.30;99.90;;;;;;5073873;28;20174;-74
2022/07/19 01:37:01;;;;;;;3.10;2.00;;;19.20;99.90;;;;;;5073248;28;20226;-74
2022/07/19 01:39:27;;;;;;;2.97;1.80;;;19.20;99.90;;;;;;5073495;28;20202;-74
2022/07/19 01:41:52;;;;;;;2.47;2.23;;;19.10;99.90;;;;;;5072146;28;20223;-74
2022/07/19 01:44:18;;;;;;;2.03;1.70;;;19.10;99.90;;;;;;5072793;28;20166;-74
2022/07/19 01:46:43;;;;;;;2.60;1.90;;;19.10;99.90;;;;;;5073202;28;20507;-74
2022/07/19 01:49:09;;;;;;;2.60;1.83;;;19.10;99.90;;;;;;5073169;28;20554;-74
2022/07/19 01:51:34;;;;;;;2.23;1.67;;;19.00;99.90;;;;;;5073229;28;20174;-73
2022/07/19 01:54:00;;;;;;;2.47;2.27;;;19.00;99.90;;;;;;5072884;28;20229;-72
2022/07/19 01:56:25;;;;;;;2.40;2.10;;;19.00;99.90;;;;;;5071638;28;20166;-72
2022/07/19 01:58:51;;;;;;;3.53;2.53;;;19.10;99.90;;;;;;5071604;28;20193;-73
2022/07/19 02:01:16;;;;;;;2.93;2.63;;;19.10;99.90;;;;;;5071871;28;20546;-72
2022/07/19 02:03:42;;;;;;;2.40;2.10;;;19.00;99.90;;;;;;5071898;28;20246;-73
2022/07/19 02:06:08;;;;;;;1.97;1.40;;;19.00;99.90;;;;;;5071403;28;20639;-72
2022/07/19 02:08:33;;;;;;;1.63;1.53;;;19.00;99.90;;;;;;5071836;28;20173;-72
2022/07/19 02:10:59;;;;;;;3.73;2.07;;;19.00;99.90;;;;;;5071723;28;20190;-73
2022/07/19 02:13:25;;;;;;;2.10;1.90;;;18.90;99.90;;;;;;5071787;28;20166;-73
2022/07/19 02:15:51;;;;;;;2.60;1.50;;;18.90;99.90;;;;;;5071500;28;20170;-72
2022/07/19 02:18:16;;;;;;;2.37;1.97;;;18.80;99.90;;;;;;5071640;28;20491;-72
2022/07/19 02:20:42;;;;;;;1.90;1.70;;;18.80;99.90;;;;;;5071468;28;20486;-72
2022/07/19 02:23:08;;;;;;;3.40;2.13;;;18.80;99.90;;;;;;5071646;28;20169;-72
2022/07/19 02:25:33;;;;;;;10.10;2.10;;;18.70;99.90;;;;;;5075311;28;20535;-73
2022/07/19 02:28:00;;;;;;;1.97;1.87;;;18.70;99.90;;;;;;5074495;28;20180;-72
2022/07/19 02:30:25;;;;;;;2.97;2.20;;;18.60;99.90;;;;;;5075561;28;20175;-72
2022/07/19 02:32:51;;;;;;;2.10;1.90;;;18.50;99.90;;;;;;5074335;28;20415;-72
2022/07/19 02:35:18;;;;;;;2.00;1.80;;;18.50;99.90;;;;;;5075150;28;20170;-73
2022/07/19 02:37:43;;;;;;;3.47;2.00;;;18.50;99.90;;;;;;5075498;28;20154;-73
2022/07/19 02:40:10;;;;;;;4.70;2.57;;;18.60;99.90;;;;;;5075262;28;20891;-73
2022/07/19 02:42:35;;;;;;;2.30;2.00;;;18.60;99.90;;;;;;5075430;28;20193;-73
2022/07/19 02:45:01;;;;;;;3.17;2.43;;;18.50;99.90;;;;;;5075178;28;20428;-73
2022/07/19 02:47:27;;;;;;;2.47;2.17;;;18.50;99.90;;;;;;5075198;28;20651;-73
2022/07/19 02:49:52;;;;;;;3.83;2.77;;;18.50;99.90;;;;;;5075049;28;20274;-74
2022/07/19 02:52:18;;;;;;;3.10;2.07;;;18.50;99.90;;;;;;5075099;28;20666;-72
2022/07/19 02:54:43;;;;;;;2.70;2.43;;;18.50;99.90;;;;;;5074849;28;20162;-74
2022/07/19 02:57:09;;;;;;;2.30;2.10;;;18.50;99.90;;;;;;5075106;28;20166;-73
2022/07/19 02:59:35;;;;;;;2.90;2.30;;;18.40;99.90;;;;;;5073771;28;20728;-73
2022/07/19 03:02:01;;;;;;;4.50;2.63;;;18.40;99.90;;;;;;5074944;28;20491;-73
2022/07/19 03:04:26;;;;;;;2.40;2.20;;;18.40;99.90;;;;;;5074587;28;20245;-75
2022/07/19 03:06:52;;;;;;;2.80;2.20;;;18.40;99.90;;;;;;5075040;28;20220;-73
2022/07/19 03:09:19;;;;;;;2.10;1.90;;;18.30;99.90;;;;;;5074786;28;20257;-73
2022/07/19 03:11:45;;;;;;;2.10;2.00;;;18.40;99.90;;;;;;5074843;28;20197;-74
2022/07/19 03:14:10;;;;;;;2.43;1.87;;;18.30;99.90;;;;;;5073456;28;20450;-73
2022/07/19 03:16:36;;;;;;;3.80;2.87;;;18.30;99.90;;;;;;5074594;28;20199;-73
2022/07/19 03:19:01;;;;;;;2.37;2.03;;;18.20;99.90;;;;;;5073226;28;20708;-73
2022/07/19 03:21:27;;;;;;;4.97;3.90;;;18.20;99.90;;;;;;5074665;28;20530;-74
2022/07/19 03:23:52;;;;;;;5.17;2.80;;;18.20;99.90;;;;;;5074595;28;20169;-73
2022/07/19 03:26:18;;;;;;;2.73;1.90;;;18.20;99.90;;;;;;5074286;28;20166;-73
2022/07/19 03:28:43;;;;;;;2.63;2.17;;;18.20;99.90;;;;;;5074362;28;20219;-72
2022/07/19 03:31:09;;;;;;;2.33;1.97;;;18.20;99.90;;;;;;5073241;28;20175;-72
2022/07/19 03:33:35;;;;;;;2.70;1.77;;;18.20;99.90;;;;;;5074396;28;20631;-72
2022/07/19 03:36:01;;;;;;;2.33;2.13;;;18.20;99.90;;;;;;5073388;28;20163;-73
2022/07/19 03:38:26;;;;;;;2.17;1.97;;;18.10;99.90;;;;;;5074224;28;20197;-73
2022/07/19 03:40:52;;;;;;;6.37;1.93;;;18.10;99.90;;;;;;5074169;28;20189;-73
2022/07/19 03:43:17;;;;;;;2.97;2.40;;;18.10;99.90;;;;;;5074235;28;20216;-72
2022/07/19 03:45:44;;;;;;;2.23;1.90;;;18.10;99.90;;;;;;5073933;28;20162;-72
2022/07/19 03:48:10;;;;;;;3.77;3.33;;;18.10;99.90;;;;;;5074090;28;20249;-72
2022/07/19 03:50:36;;;;;;;2.27;1.90;;;18.00;99.90;;;;;;5073965;28;21086;-73
2022/07/19 03:53:01;;;;;;;2.63;2.20;;;18.00;99.90;;;;;;5072604;28;20226;-72
2022/07/19 03:55:27;;;;;;;2.63;1.93;;;18.10;99.90;;;;;;5072404;28;20400;-72
2022/07/19 03:57:53;;;;;;;2.17;1.97;;;18.10;99.90;;;;;;5073950;28;20232;-72
2022/07/19 04:00:18;;;;;;;2.13;1.93;;;18.10;99.90;;;;;;5073749;28;20197;-74
2022/07/19 04:02:44;;;;;;;3.93;2.33;;;18.10;99.90;;;;;;5073876;28;20165;-73
2022/07/19 04:05:09;;;;;;;5.10;3.13;;;18.20;99.90;;;;;;5073491;28;20163;-72
2022/07/19 04:07:35;;;;;;;3.13;2.80;;;18.20;99.90;;;;;;5073744;28;20162;-73
2022/07/19 04:10:01;;;;;;;4.60;2.80;;;18.10;99.90;;;;;;5073660;28;20194;-74
2022/07/19 04:12:26;;;;;;;2.73;2.00;;;18.10;99.90;;;;;;5073672;28;20535;-73
2022/07/19 04:14:52;;;;;;;4.63;2.43;;;18.10;99.90;;;;;;5073327;28;20201;-73
2022/07/19 04:17:17;;;;;;;2.73;2.40;;;18.10;99.90;;;;;;5073560;28;20167;-73
2022/07/19 04:19:43;;;;;;;3.80;2.97;;;18.10;99.90;;;;;;5073275;28;20206;-73
2022/07/19 04:22:09;;;;;;;2.77;2.20;;;18.20;99.90;;;;;;5073456;28;20163;-73
2022/07/19 04:24:34;;;;;;;2.73;2.50;;;18.20;99.90;;;;;;5073151;28;20184;-73
2022/07/19 04:27:00;;;;;;;2.20;2.00;;;18.30;99.90;;;;;;5072174;28;20185;-73
2022/07/19 04:29:25;;;;;;;3.40;2.23;;;18.40;99.90;;;;;;5073180;28;20609;-73
2022/07/19 04:31:51;;;;;;;6.30;2.53;;;18.50;99.90;;;;;;5073286;28;20543;-73
2022/07/19 04:34:17;;;;;;;8.13;3.47;;;18.60;99.90;;;;;;5072877;28;20201;-73
2022/07/19 04:36:42;;;;;;;2.50;2.03;;;18.60;99.90;;;;;;5073218;28;20165;-73
2022/07/19 04:39:08;;;;;;;9.33;3.50;;;18.70;99.90;;;;;;5073001;28;20229;-73
2022/07/19 04:41:33;;;;;;;2.90;2.20;;;18.70;99.90;;;;;;5071828;28;20178;-73
2022/07/19 04:43:59;;;;;;;3.03;2.70;;;18.80;99.90;;;;;;5073041;28;20162;-73
2022/07/19 04:46:24;;;;;;;3.60;3.27;;;18.80;99.90;;;;;;5072598;28;20208;-73
2022/07/19 04:48:50;;;;;;;3.33;2.43;;;18.80;99.90;;;;;;5071922;28;20174;-73
2022/07/19 04:51:15;;;;;;;3.73;2.30;;;18.90;99.90;;;;;;5072904;28;20174;-73
2022/07/19 04:53:41;;;;;;;2.77;2.27;;;18.90;99.90;;;;;;5072773;28;20269;-74
2022/07/19 04:56:06;;;;;;;3.87;2.33;;;18.90;99.90;;;;;;5072530;28;20174;-73
2022/07/19 04:58:32;;;;;;;3.97;2.10;;;19.00;99.90;;;;;;5072631;28;20221;-73
2022/07/19 05:00:57;;;;;;;2.00;1.90;;;19.00;99.90;;;;;;5072711;28;20266;-73
2022/07/19 05:03:23;;;;;;;2.90;2.40;;;19.00;99.90;;;;;;5071334;28;20166;-73
2022/07/19 05:05:49;;;;;;;3.50;2.60;;;19.10;99.90;;;;;;5072235;28;20166;-73
2022/07/19 05:08:14;;;;;;;1.67;1.57;;;19.20;99.90;;;;;;5072630;28;20591;-73
2022/07/19 05:10:40;;;;;;;2.80;1.87;;;19.30;99.90;;;;;;5072507;28;20178;-72
2022/07/19 05:13:05;;;;;;;4.33;2.87;;;19.30;99.90;;;;;;5072535;28;20166;-73
2022/07/19 05:15:31;;;;;;;5.00;2.00;;;19.40;99.90;;;;;;5072203;28;20212;-74
2022/07/19 05:17:56;;;;;;;2.63;1.93;;;19.50;99.90;;;;;;5072312;28;20174;-73
2022/07/19 05:20:22;;;;;;;3.57;1.93;;;19.60;99.90;;;;;;5072205;28;20273;-73
2022/07/19 05:22:49;;;;;;;2.33;2.13;;;19.70;99.90;;;;;;5072390;28;20258;-73
2022/07/19 05:25:15;;;;;;;3.70;2.10;;;19.80;99.90;;;;;;5071046;28;20809;-72
2022/07/19 05:27:41;;;;;;;2.30;2.00;;;19.90;99.90;;;;;;5072304;28;20897;-74
2022/07/19 05:30:07;;;;;;;4.37;2.27;;;20.00;99.90;;;;;;5072223;28;20474;-73
2022/07/19 05:32:32;;;;;;;2.87;2.20;;;20.10;99.90;;;;;;5072106;28;20702;-73
2022/07/19 05:34:58;;;;;;;2.43;2.10;;;20.30;99.90;;;;;;5071936;28;20484;-73
2022/07/19 05:37:23;;;;;;;3.70;2.17;;;20.40;99.90;;;;;;5070846;28;20170;-73
2022/07/19 05:39:49;;;;;;;2.27;2.07;;;20.50;99.90;;;;;;5070779;28;20747;-74
2022/07/19 05:42:14;;;;;;;7.63;3.07;;;20.70;99.90;;;;;;5072149;28;20546;-73
2022/07/19 05:44:40;;;;;;;2.60;2.00;;;20.90;99.90;;;;;;5071811;28;20639;-73
2022/07/19 05:47:06;;;;;;;3.10;2.27;;;21.10;99.90;;;;;;5071901;28;20165;-73
2022/07/19 05:49:31;;;;;;;2.53;1.87;;;21.40;99.90;;;;;;5072005;28;20258;-74
2022/07/19 05:51:57;;;;;;;2.50;2.10;;;21.70;99.90;;;;;;5071855;28;20178;-73
2022/07/19 05:54:23;;;;;;;1.97;1.77;;;22.00;99.90;;;;;;5071751;28;20633;-73
2022/07/19 05:56:48;;;;;;;3.63;2.87;;;22.20;99.90;;;;;;5071889;28;20519;-73
2022/07/19 05:59:14;;;;;;;2.53;1.70;;;22.50;99.90;;;;;;5071451;28;20254;-74
2022/07/19 06:01:39;;;;;;;2.93;2.23;;;22.80;99.90;;;;;;5071865;28;20639;-73
2022/07/19 06:04:05;;;;;;;2.33;2.10;;;23.00;99.90;;;;;;5071864;28;20245;-73
2022/07/19 06:06:34;;;;;;;2.70;2.37;;;23.30;99.90;;;;;;5071603;28;20201;-73
2022/07/19 06:09:00;;;;;;;3.10;2.20;;;23.50;99.90;;;;;;5071682;28;20428;-74
2022/07/19 06:11:27;;;;;;;7.70;3.40;;;23.80;99.90;;;;;;5071812;28;20856;-75
2022/07/19 06:13:52;;;;;;;4.80;2.30;;;24.30;99.90;;;;;;5071729;28;20405;-73
2022/07/19 06:16:18;;;;;;;2.80;1.83;;;24.70;99.90;;;;;;5071456;28;20479;-74
2022/07/19 06:18:44;;;;;;;2.90;2.00;;;25.10;99.90;;;;;;5071497;28;20686;-75
2022/07/19 06:21:12;;;;;;;3.80;2.60;;;25.50;99.90;;;;;;5071703;28;20483;-74
2022/07/19 06:23:39;;;;;;;3.00;2.27;;;26.10;99.90;;;;;;5071622;28;20158;-74
2022/07/19 06:26:06;;;;;;;2.17;1.97;;;26.60;99.90;;;;;;5071418;28;20889;-74
2022/07/19 06:28:32;;;;;;;2.50;2.23;;;26.80;99.90;;;;;;5071606;28;20952;-74
2022/07/19 06:30:58;;;;;;;2.90;2.30;;;27.00;97.40;;;;;;5071513;28;20481;-74
2022/07/19 06:33:24;;;;;;;6.67;2.00;;;27.20;96.00;;;;;;5071606;28;20965;-74
2022/07/19 06:35:50;;;;;;;2.20;2.00;;;27.50;95.30;;;;;;5071331;28;20162;-74
2022/07/19 06:38:15;;;;;;;2.77;2.03;;;27.70;92.60;;;;;;5071496;28;20940;-74
2022/07/19 06:40:41;;;;;;;3.30;2.23;;;27.90;90.10;;;;;;5071476;28;20186;-74
2022/07/19 06:43:07;;;;;;;3.33;2.40;;;28.00;89.40;;;;;;5071461;28;20169;-74
2022/07/19 06:45:33;;;;;;;3.33;2.00;;;28.40;85.50;;;;;;5071161;28;20246;-75
2022/07/19 06:47:59;;;;;;;4.50;2.73;;;28.60;82.10;;;;;;5071421;28;20428;-75
2022/07/19 06:50:24;;;;;;;3.00;2.13;;;29.00;79.20;;;;;;5070047;28;20687;-75
2022/07/19 06:52:50;;;;;;;3.93;1.93;;;29.10;75.70;;;;;;5071348;28;20182;-74
2022/07/19 06:55:15;;;;;;;5.60;1.97;;;29.50;72.50;;;;;;5071114;28;20162;-75
2022/07/19 06:57:41;;;;;;;3.50;3.20;;;29.80;70.00;;;;;;5071408;28;20166;-75
2022/07/19 07:00:09;;;;;;;5.70;2.03;;;29.80;68.30;;;;;;5069861;28;20259;-75
2022/07/19 07:02:37;;;;;;;2.27;2.03;;;29.90;67.80;;;;;;5071382;28;20166;-75
2022/07/19 07:05:04;;;;;;;2.70;2.23;;;30.50;67.10;;;;;;5071024;28;20428;-75
2022/07/19 07:07:29;;;;;;;2.47;2.23;;;31.10;64.10;;;;;;5069986;28;20416;-75
2022/07/19 07:09:55;;;;;;;2.80;2.03;;;31.60;60.30;;;;;;5071152;28;20487;-75
2022/07/19 07:12:20;;;;;;;1.87;1.70;;;32.00;59.60;;;;;;5074340;28;20162;-75
2022/07/19 07:14:46;;;;;;;2.83;2.40;;;32.60;56.90;;;;;;5074464;28;20167;-76
2022/07/19 07:17:11;;;;;;;2.70;1.87;;;33.10;56.00;;;;;;5074801;28;20219;-75
2022/07/19 07:19:37;;;;;;;3.10;2.23;;;33.50;53.90;;;;;;5074620;28;20206;-75
2022/07/19 07:22:02;;;;;;;2.20;2.00;;;33.90;52.30;;;;;;5074646;28;20154;-75
2022/07/19 07:24:28;;;;;;;4.60;1.97;;;34.10;50.90;;;;;;5074351;28;20159;-76
2022/07/19 07:26:54;;;;;;;2.23;1.93;;;34.40;51.10;;;;;;5074569;28;20162;-75
2022/07/19 07:29:19;;;;;;;6.73;2.00;;;35.00;48.80;;;;;;5074411;28;20579;-75
2022/07/19 07:31:45;;;;;;;2.23;2.00;;;35.40;48.80;;;;;;5074545;28;20211;-75
2022/07/19 07:34:11;;;;;;;4.53;2.53;;;36.00;47.00;;;;;;5074368;28;20173;-75
2022/07/19 07:36:36;;;;;;;2.43;1.90;;;36.50;45.20;;;;;;5074209;28;20173;-76
2022/07/19 07:39:03;;;;;;;2.27;2.07;;;36.80;45.40;;;;;;5074137;28;20198;-75
2022/07/19 07:41:28;;;;;;;3.70;2.07;;;37.30;43.20;;;;;;5074162;28;20166;-75
2022/07/19 07:43:54;;;;;;;2.80;2.60;;;37.60;41.70;;;;;;5074157;28;20424;-76
2022/07/19 07:46:19;;;;;;;2.30;2.10;;;37.80;41.00;;;;;;5073968;28;20175;-75
2022/07/19 07:48:45;;;;;;;3.03;2.33;;;38.10;40.60;;;;;;5074127;28;20163;-76
2022/07/19 07:51:11;;;;;;;4.43;3.20;;;38.60;40.30;;;;;;5074142;28;20171;-75
2022/07/19 07:53:36;;;;;;;3.70;2.60;;;38.70;38.90;;;;;;5073989;28;20718;-76
2022/07/19 07:56:02;;;;;;;2.60;2.40;;;39.00;39.60;;;;;;5073719;28;20249;-75
2022/07/19 07:58:27;;;;;;;2.93;2.63;;;39.60;37.90;;;;;;5073915;28;20194;-75
2022/07/19 08:00:53;;;;;;;2.60;2.40;;;40.10;36.60;;;;;;5073918;28;20186;-75
2022/07/19 08:03:19;;;;;;;3.00;2.53;;;40.10;36.40;;;;;;5074794;28;20170;-75
2022/07/19 08:05:47;;;;;;;3.23;2.23;;;40.30;36.90;;;;;;5074189;28;20170;-76
2022/07/19 08:08:14;;;;;;;2.50;2.30;;;40.70;35.10;;;;;;5074648;28;20553;-76
2022/07/19 08:10:39;;;;;;;2.70;2.33;;;40.80;34.20;;;;;;5074826;28;20434;-76
2022/07/19 08:13:05;;;;;;;2.27;2.17;;;41.10;34.60;;;;;;5072690;28;20409;-75
2022/07/19 08:15:30;;;;;;;2.23;2.03;;;41.30;35.10;;;;;;5073377;28;20167;-75
2022/07/19 08:17:56;;;;;;;2.23;2.10;;;41.90;34.50;;;;;;5073600;28;20171;-76
2022/07/19 08:20:22;;;;;;;2.70;2.50;;;42.40;32.80;;;;;;5072219;28;20220;-74
2022/07/19 08:22:47;;;;;;;2.40;2.20;;;42.70;31.80;;;;;;5073064;28;20239;-75
2022/07/19 08:25:16;;;;;;;2.33;2.13;;;43.00;35.30;;;;;;5073200;28;20174;-75
2022/07/19 08:27:45;;;;;;;3.20;2.60;;;43.40;31.70;;;;;;5073068;28;20166;-75
2022/07/19 08:30:11;;;;;;;5.07;2.60;;;43.80;32.10;;;;;;5073394;28;20507;-75
2022/07/19 08:32:38;;;;;;;3.20;2.53;;;44.20;31.00;;;;;;5073306;28;20391;-76
2022/07/19 08:35:05;;;;;;;2.53;2.33;;;44.70;31.40;;;;;;5072761;28;20382;-75
2022/07/19 08:37:30;;;;;;;2.80;2.53;;;45.20;31.20;;;;;;5071606;28;20507;-76
2022/07/19 08:39:56;;;;;;;2.30;2.10;;;45.60;29.50;;;;;;5072805;28;20523;-76
2022/07/19 08:42:21;;;;;;;2.93;2.73;;;45.40;28.50;;;;;;5072793;28;20173;-76
2022/07/19 08:44:51;;;;;;;3.13;2.83;;;46.10;29.20;;;;;;5072543;28;20245;-76
2022/07/19 08:47:19;;;;;;;4.77;2.03;;;46.50;28.70;;;;;;5072675;28;20170;-76
2022/07/19 08:49:45;;;;;;;3.10;2.30;;;46.50;28.30;;;;;;5072664;28;20507;-76
2022/07/19 08:52:11;;;;;;;2.90;2.70;;;47.10;29.30;;;;;;5072744;28;21189;-76
2022/07/19 08:54:37;;;;;;;3.20;2.90;;;48.10;28.30;;;;;;5072721;28;20405;-76
2022/07/19 08:59:46;;;;;;;3.30;2.80;;;49.30;27.30;;;;;;5073276;28;20759;-77
2022/07/19 09:02:12;;;;;;;3.07;2.83;;;49.60;27.40;;;;;;5072687;28;20400;-77
2022/07/19 09:04:37;;;;;;;3.40;3.10;;;50.30;27.40;;;;;;5072610;28;20163;-77
2022/07/19 09:07:03;;;;;;;3.73;3.47;;;50.40;26.10;;;;;;5071406;28;20182;-75
2022/07/19 09:09:31;;;;;;;4.97;4.43;;;50.90;26.70;;;;;;5072526;28;20208;-77
2022/07/19 09:11:59;;;;;;;3.90;3.60;;;50.50;24.40;;;;;;5072698;28;20166;-77
2022/07/19 09:14:33;;;;;;;4.07;3.50;;;50.50;25.20;;;;;;5072523;28;20405;-76
2022/07/19 09:17:02;;;;;;;3.40;2.97;;;50.10;27.10;;;;;;5072168;28;20755;-76
2022/07/19 09:19:31;;;;;;;5.67;3.43;;;50.60;26.60;;;;;;5072229;28;20987;-76
2022/07/19 09:22:09;;;;;;;4.03;3.83;;;51.10;27.60;;;;;;5072331;28;20408;-76
2022/07/19 09:24:37;;;;;;;3.77;3.57;;;51.70;27.00;;;;;;5072069;28;20936;-76
2022/07/19 09:27:02;;;;;;;3.70;3.50;;;52.30;24.50;;;;;;5072158;28;20415;-76
2022/07/19 09:29:30;;;;;;;3.73;3.27;;;52.20;23.50;;;;;;5072058;28;20820;-76
2022/07/19 09:31:58;;;;;;;4.13;3.73;;;52.00;24.30;;;;;;5072237;28;20199;-76
2022/07/19 09:34:35;;;;;;;3.43;3.23;;;51.90;23.80;;;;;;5072316;28;20400;-78
2022/07/19 09:37:08;;;;;;;3.80;3.57;;;52.20;24.10;;;;;;5073448;28;20424;-77
2022/07/19 09:39:33;;;;;;;4.37;4.07;;;52.50;26.00;;;;;;5074513;28;20582;-77
2022/07/19 09:42:02;;;;;;;5.07;4.20;;;52.50;23.00;;;;;;5074539;28;20454;-78
2022/07/19 09:44:28;;;;;;;5.77;3.97;;;52.30;25.70;;;;;;5074360;28;20581;-78
2022/07/19 09:46:54;;;;;;;4.23;3.80;;;52.70;23.50;;;;;;5073172;28;20893;-76
2022/07/19 09:49:20;;;;;;;3.87;3.37;;;52.70;22.80;;;;;;5072712;28;20455;-77
2022/07/19 09:51:51;;;;;;;3.80;3.60;;;52.80;23.80;;;;;;5071282;28;20196;-77
2022/07/19 09:54:18;;;;;;;4.83;4.60;;;52.80;23.80;;;;;;5072786;28;20170;-76
2022/07/19 09:56:45;;;;;;;3.50;3.20;;;53.20;22.30;;;;;;5071906;28;20399;-76
2022/07/19 09:59:11;;;;;;;4.50;4.20;;;52.80;22.00;;;;;;5071794;28;20426;-76
2022/07/19 10:01:39;;;;;;;3.90;3.70;;;52.50;22.50;;;;;;5071914;28;20411;-76
2022/07/19 10:04:08;;;;;;;3.50;3.30;;;52.80;22.90;;;;;;5071882;28;20408;-76
2022/07/19 10:06:34;;;;;;;7.87;6.60;;;53.00;22.50;;;;;;5071708;28;20811;-76
2022/07/19 10:09:02;;;;;;;8.97;4.07;;;53.00;24.60;;;;;;5071811;28;20893;-76
2022/07/19 10:11:30;;;;;;;3.50;3.10;;;53.50;21.40;;;;;;5071773;28;20408;-76
2022/07/19 10:13:56;;;;;;;5.87;4.73;;;53.20;21.00;;;;;;5071777;28;20755;-76
2022/07/19 10:16:46;;;;;;;4.33;4.03;;;52.90;22.20;;;;;;5071504;28;20404;-77
2022/07/19 10:19:26;;;;;;;3.90;3.70;;;53.40;21.30;;;;;;5071778;28;20436;-78
2022/07/19 10:21:52;;;;;;;4.63;4.23;;;53.60;22.00;;;;;;5074010;28;20396;-77
2022/07/19 10:24:55;;;;;;;4.30;4.10;;;54.00;22.40;;;;;;5073197;28;20767;-77
2022/07/19 10:27:23;;;;;;;3.80;3.50;;;54.80;20.40;;;;;;5073668;28;20396;-78
2022/07/19 10:29:50;;;;;;;3.83;3.63;;;54.10;19.70;;;;;;5073594;28;20466;-78
2022/07/19 10:32:15;;;;;;;4.87;4.47;;;53.80;19.80;;;;;;5073997;28;20397;-77
2022/07/19 10:34:42;;;;;;;3.60;3.40;;;54.00;20.90;;;;;;5073134;28;20586;-78
2022/07/19 10:37:08;;;;;;;3.90;3.60;;;54.20;20.80;;;;;;5074486;28;20192;-77
2022/07/19 10:39:39;;;;;;;3.80;3.60;;;54.20;20.00;;;;;;5071448;28;20940;-77
2022/07/19 10:42:17;;;;;;;4.50;4.10;;;54.30;20.60;;;;;;5071664;28;20461;-76
2022/07/19 10:44:55;;;;;;;3.37;3.17;;;53.60;19.70;;;;;;5072230;28;20398;-77
2022/07/19 10:47:40;;;;;;;3.77;3.40;;;53.80;20.20;;;;;;5078586;28;20515;-78
2022/07/19 10:50:14;;;;;;;4.40;4.10;;;54.00;20.50;;;;;;5064397;28;20463;-77
2022/07/19 10:52:42;;;;;;;4.73;4.43;;;54.20;20.00;;;;;;5075660;28;20483;-77
2022/07/19 10:55:27;;;;;;;4.30;4.00;;;54.20;20.40;;;;;;5074879;28;20889;-76
2022/07/19 10:58:11;;;;;;;4.33;4.13;;;54.20;20.60;;;;;;5075152;28;20436;-76
2022/07/19 11:00:47;;;;;;;3.70;3.40;;;54.20;19.70;;;;;;5075095;28;20444;-77
2022/07/19 11:03:25;;;;;;;4.20;4.00;;;53.50;20.70;;;;;;5075098;28;20445;-76
2022/07/19 11:05:56;;;;;;;3.20;3.00;;;53.30;20.10;;;;;;5074660;28;20399;-76
2022/07/19 11:08:39;;;;;;;3.33;3.07;;;52.90;19.50;;;;;;5076130;28;20488;-79
2022/07/19 11:11:10;;;;;;;3.10;3.00;;;52.90;21.50;;;;;;5077914;28;20499;-78
2022/07/19 11:13:37;;;;;;;3.13;3.03;;;53.20;19.40;;;;;;5076003;28;20497;-78
2022/07/19 11:16:04;;;;;;;4.97;4.73;;;52.90;18.60;;;;;;5076005;28;20416;-78
2022/07/19 11:18:30;;;;;;;3.20;3.00;;;52.80;19.70;;;;;;5076571;28;20412;-78
2022/07/19 11:20:58;;;;;;;2.87;2.67;;;52.10;19.70;;;;;;5077724;28;20845;-79
2022/07/19 11:23:27;;;;;;;3.07;2.87;;;52.20;19.70;;;;;;5076058;28;20401;-77
2022/07/19 11:26:14;;;;;;;3.07;2.87;;;51.90;19.40;;;;;;5074316;28;20898;-77
2022/07/19 11:28:42;;;;;;;3.10;2.90;;;52.20;20.50;;;;;;5074437;28;20876;-76
2022/07/19 11:31:26;;;;;;;3.07;2.87;;;52.60;19.70;;;;;;5074492;28;20412;-77
2022/07/19 11:33:56;;;;;;;3.30;3.10;;;53.10;20.50;;;;;;5074537;28;20928;-76
2022/07/19 11:36:22;;;;;;;3.07;2.97;;;53.60;19.30;;;;;;5074233;28;20458;-76
2022/07/19 11:38:50;;;;;;;3.00;2.80;;;53.10;19.20;;;;;;5074304;28;20411;-77
2022/07/19 11:41:22;;;;;;;3.20;3.00;;;52.20;19.20;;;;;;5074720;28;20397;-76
2022/07/19 11:44:01;;;;;;;3.30;3.00;;;51.60;19.60;;;;;;5074296;28;20472;-76
2022/07/19 11:46:34;;;;;;;4.00;3.57;;;51.30;19.70;;;;;;5074067;28;20404;-76
2022/07/19 11:49:02;;;;;;;3.10;2.90;;;51.40;19.40;;;;;;5074110;28;20448;-76
2022/07/19 11:51:28;;;;;;;3.10;2.90;;;51.50;19.70;;;;;;5074118;28;20680;-77
2022/07/19 11:53:56;;;;;;;3.47;3.17;;;51.10;19.60;;;;;;5074158;28;20469;-76
2022/07/19 11:56:24;;;;;;;3.10;2.93;;;50.90;19.20;;;;;;5074397;28;20767;-78
2022/07/19 11:58:52;;;;;;;3.60;3.30;;;51.20;20.10;;;;;;5077143;28;20465;-78
2022/07/19 12:01:28;;;;;;;2.87;2.70;;;51.50;20.50;;;;;;5077223;28;20404;-77
2022/07/19 12:04:03;;;;;;;5.00;3.00;;;51.80;19.70;;;;;;5074895;28;20408;-77
2022/07/19 12:06:43;;;;;;;2.70;2.60;;;51.70;19.60;;;;;;5075973;28;20404;-78
2022/07/19 12:09:11;;;;;;;3.50;3.30;;;51.30;19.20;;;;;;5074979;28;20463;-78
2022/07/19 12:11:43;;;;;;;3.80;3.50;;;51.20;19.90;;;;;;5076982;28;20407;-78
2022/07/19 12:14:30;;;;;;;3.93;3.40;;;51.30;20.10;;;;;;5074044;28;20424;-77
2022/07/19 12:17:16;;;;;;;3.80;3.50;;;51.80;20.10;;;;;;5073661;28;20383;-77
2022/07/19 12:19:44;;;;;;;4.07;3.67;;;52.10;19.90;;;;;;5073505;28;20511;-76
2022/07/19 12:22:35;;;;;;;4.17;3.87;;;52.10;18.90;;;;;;5076517;28;20900;-79
2022/07/19 12:25:02;;;;;;;3.60;3.30;;;51.90;19.00;;;;;;5076159;28;20408;-78
2022/07/19 12:27:27;;;;;;;3.43;3.23;;;51.40;20.40;;;;;;5076180;28;20405;-78
2022/07/19 12:29:58;;;;;;;3.40;3.20;;;52.00;21.20;;;;;;5076366;28;20959;-77
2022/07/19 12:32:36;;;;;;;2.97;2.87;;;52.50;20.00;;;;;;5076117;28;20158;-77
2022/07/19 12:35:06;;;;;;;3.13;2.93;;;52.70;19.30;;;;;;5075031;28;20388;-78
2022/07/19 12:37:36;;;;;;;3.33;3.13;;;51.90;19.00;;;;;;5073306;28;20451;-76
2022/07/19 12:40:07;;;;;;;3.90;3.70;;;51.40;19.70;;;;;;5073217;28;20460;-77
2022/07/19 12:43:02;;;;;;;3.53;3.33;;;51.70;19.70;;;;;;5074209;28;20397;-78
2022/07/19 12:45:31;;;;;;;3.63;3.43;;;51.80;19.90;;;;;;5075320;28;20889;-77
2022/07/19 12:47:57;;;;;;;2.97;2.77;;;51.80;19.10;;;;;;5074561;28;20931;-76
2022/07/19 12:50:33;;;;;;;3.23;2.93;;;51.10;18.80;;;;;;5073929;28;20456;-76
2022/07/19 12:53:00;;;;;;;2.80;2.50;;;50.20;19.00;;;;;;5072832;28;20398;-76